Time;durP1;ratioP1;P1;durP2;ratioP2;P2;SDS_P1;SDS_P2;PMS_P1;PMS_P2;Temp;Humidity;BMP_temperature;BMP_pressure;BME280_temperature;BME280_humidity;BME280_pressure;Samples;Min_cycle;Max_cycle;Signal;HPM_P1;HPM_P2
2023/04/25 00:02:03;;;;;;;8.30;3.77;;;9.60;1.00;;;;;;5075682;28;20542;-77
2023/04/25 00:04:32;;;;;;;8.60;3.73;;;9.60;1.00;;;;;;5074981;28;20467;-77
2023/04/25 00:07:02;;;;;;;7.63;3.77;;;9.60;1.00;;;;;;5076820;28;20478;-76
2023/04/25 00:09:30;;;;;;;7.00;3.57;;;9.60;1.00;;;;;;5073245;28;20443;-77
2023/04/25 00:11:58;;;;;;;7.00;3.00;;;9.60;1.00;;;;;;5072373;28;20487;-78
2023/04/25 00:14:25;;;;;;;9.23;3.40;;;9.50;1.00;;;;;;5072892;28;20566;-77
2023/04/25 00:16:53;;;;;;;9.80;4.03;;;9.50;1.00;;;;;;5076068;28;20469;-76
2023/04/25 00:19:20;;;;;;;8.37;3.43;;;9.50;1.00;;;;;;5076679;28;20826;-76
2023/04/25 00:21:47;;;;;;;6.77;2.63;;;9.50;1.00;;;;;;5076135;28;21136;-76
2023/04/25 00:24:15;;;;;;;29.13;18.10;;;9.50;1.00;;;;;;5067318;28;20487;-75
2023/04/25 00:26:42;;;;;;;7.97;3.40;;;9.50;1.00;;;;;;5068066;28;21029;-76
2023/04/25 00:29:10;;;;;;;7.60;3.07;;;9.50;1.00;;;;;;5066127;28;20467;-76
2023/04/25 00:31:37;;;;;;;9.37;3.50;;;9.50;1.00;;;;;;5074007;28;20929;-76
2023/04/25 00:34:04;;;;;;;7.20;2.80;;;9.50;1.00;;;;;;5070992;27;20500;-77
2023/04/25 00:36:31;;;;;;;7.93;3.10;;;9.50;1.00;;;;;;5074132;28;20456;-76
2023/04/25 00:38:58;;;;;;;7.70;3.10;;;9.50;1.00;;;;;;5077937;28;20470;-77
2023/04/25 00:41:26;;;;;;;11.10;3.50;;;9.50;1.00;;;;;;5074041;28;20456;-76
2023/04/25 00:43:54;;;;;;;7.60;2.87;;;9.50;1.00;;;;;;5073704;28;20558;-76
2023/04/25 00:46:22;;;;;;;8.03;2.83;;;9.50;1.00;;;;;;5075649;28;20542;-77
2023/04/25 00:48:49;;;;;;;9.00;3.30;;;9.50;1.00;;;;;;5072529;28;20550;-78
2023/04/25 00:51:20;;;;;;;8.37;3.10;;;9.50;1.00;;;;;;5069167;28;20646;-76
2023/04/25 00:53:47;;;;;;;8.57;3.63;;;9.50;1.00;;;;;;5072917;28;20473;-76
2023/04/25 00:56:15;;;;;;;7.77;2.90;;;9.50;1.00;;;;;;5072354;28;20839;-76
2023/04/25 00:58:42;;;;;;;8.53;3.60;;;9.60;1.00;;;;;;5071638;28;20544;-76
2023/04/25 01:01:09;;;;;;;9.90;3.20;;;9.60;1.00;;;;;;5075386;28;20463;-75
2023/04/25 01:03:43;;;;;;;9.10;3.50;;;9.60;1.00;;;;;;5084762;22;20573;-80
2023/04/25 01:06:13;;;;;;;8.50;3.20;;;9.50;1.00;;;;;;5061985;27;20473;-79
2023/04/25 01:08:48;;;;;;;10.00;3.90;;;9.50;1.00;;;;;;5088494;27;21091;-80
2023/04/25 01:11:24;;;;;;;9.00;3.60;;;9.60;1.00;;;;;;5056735;28;20952;-79
2023/04/25 01:14:01;;;;;;;9.23;3.77;;;9.60;1.00;;;;;;5086555;27;21290;-78
2023/04/25 01:16:42;;;;;;;10.23;3.97;;;9.50;1.00;;;;;;5081843;22;20961;-78
2023/04/25 01:22:03;;;;;;;8.30;3.37;;;9.50;1.00;;;;;;5038935;28;20422;-80
2023/04/25 01:24:33;;;;;;;10.27;4.07;;;9.60;1.00;;;;;;5043675;28;20465;-79
2023/04/25 01:27:01;;;;;;;10.50;3.30;;;9.60;1.00;;;;;;5056428;28;20948;-78
2023/04/25 01:29:29;;;;;;;10.60;3.90;;;9.60;1.00;;;;;;5052440;28;20457;-78
2023/04/25 01:31:59;;;;;;;8.53;3.57;;;9.50;1.00;;;;;;5043648;28;20557;-78
2023/04/25 01:34:28;;;;;;;9.13;3.83;;;9.60;1.00;;;;;;5035244;28;20487;-77
2023/04/25 01:37:03;;;;;;;11.67;3.90;;;9.60;1.00;;;;;;5036678;28;20493;-78
2023/04/25 01:39:35;;;;;;;12.47;3.97;;;9.60;1.00;;;;;;5032961;28;20449;-79
2023/04/25 01:42:02;;;;;;;9.37;3.80;;;9.70;1.00;;;;;;5043840;28;20511;-77
2023/04/25 01:44:32;;;;;;;9.23;4.27;;;9.70;1.00;;;;;;5042175;28;20476;-78
2023/04/25 01:47:02;;;;;;;9.50;3.67;;;9.60;1.00;;;;;;5042167;28;20533;-79
2023/04/25 01:49:29;;;;;;;9.30;4.20;;;9.70;1.00;;;;;;5042715;28;20903;-80
2023/04/25 01:54:43;;;;;;;10.00;4.40;;;9.70;1.00;;;;;;5046715;28;20460;-78
2023/04/25 01:57:20;;;;;;;7.50;3.27;;;9.80;1.00;;;;;;5040615;28;20944;-78
2023/04/25 01:59:47;;;;;;;9.23;3.90;;;9.70;1.00;;;;;;5043495;28;20464;-79
2023/04/25 02:02:16;;;;;;;10.23;3.83;;;9.70;1.00;;;;;;5049552;28;20428;-79
2023/04/25 02:04:46;;;;;;;10.73;4.20;;;9.70;1.00;;;;;;5046492;28;20519;-79
2023/04/25 02:07:18;;;;;;;9.10;3.60;;;9.80;1.00;;;;;;5048145;28;21345;-79
2023/04/25 02:09:45;;;;;;;9.27;4.23;;;9.80;1.00;;;;;;5041768;28;20554;-79
2023/04/25 02:15:00;;;;;;;9.80;4.23;;;9.80;1.00;;;;;;5049059;28;20460;-78
2023/04/25 02:17:31;;;;;;;8.23;4.50;;;9.80;1.00;;;;;;5043240;28;20553;-78
2023/04/25 02:19:58;;;;;;;9.73;4.70;;;9.80;1.00;;;;;;5043610;28;20464;-78
2023/04/25 02:22:31;;;;;;;9.53;4.50;;;9.80;1.00;;;;;;5035784;28;20452;-78
2023/04/25 02:25:04;;;;;;;9.30;4.73;;;9.70;1.00;;;;;;5042394;28;20468;-78
2023/04/25 02:27:31;;;;;;;11.00;4.87;;;9.60;1.00;;;;;;5047752;28;20501;-79
2023/04/25 02:29:58;;;;;;;9.70;4.90;;;9.70;1.00;;;;;;5044797;28;20469;-78
2023/04/25 02:32:25;;;;;;;9.50;4.60;;;9.70;1.00;;;;;;5046051;28;20579;-78
2023/04/25 02:34:52;;;;;;;7.77;4.40;;;9.70;1.00;;;;;;5042352;28;20992;-79
2023/04/25 02:37:21;;;;;;;11.60;4.73;;;9.80;1.00;;;;;;5042817;28;20516;-79
2023/04/25 02:42:32;;;;;;;9.33;4.50;;;9.90;1.00;;;;;;5036983;28;20551;-79
2023/04/25 02:45:06;;;;;;;10.13;3.80;;;9.90;1.00;;;;;;5041473;28;20471;-78
2023/04/25 02:47:33;;;;;;;10.40;4.73;;;9.90;1.00;;;;;;5032516;28;21382;-77
2023/04/25 02:50:03;;;;;;;11.57;4.50;;;9.90;1.00;;;;;;5039037;28;20459;-78
2023/04/25 02:58:05;;;;;;;10.30;4.90;;;9.80;1.00;;;;;;5040858;28;20472;-79
2023/04/25 03:00:34;;;;;;;9.23;4.47;;;9.80;1.00;;;;;;5045458;28;20562;-79
2023/04/25 03:03:07;;;;;;;9.63;4.87;;;9.80;1.00;;;;;;5045045;28;20470;-78
2023/04/25 03:05:36;;;;;;;10.00;4.80;;;9.80;1.00;;;;;;5044765;28;20556;-78
2023/04/25 03:08:07;;;;;;;8.83;4.70;;;9.80;1.00;;;;;;5057054;28;20431;-79
2023/04/25 03:10:37;;;;;;;8.47;4.57;;;9.80;1.00;;;;;;5030590;28;21011;-79
2023/04/25 03:13:05;;;;;;;10.80;5.30;;;9.90;1.00;;;;;;5037178;28;20472;-80
2023/04/25 03:15:32;;;;;;;8.57;4.60;;;9.80;1.00;;;;;;5043354;28;20461;-79
2023/04/25 03:17:59;;;;;;;10.00;5.43;;;9.80;1.00;;;;;;5042303;28;20484;-78
2023/04/25 03:20:28;;;;;;;20.27;6.57;;;9.70;1.00;;;;;;5044440;28;20449;-78
2023/04/25 03:22:56;;;;;;;9.80;4.57;;;9.70;1.00;;;;;;5038550;28;20457;-78
2023/04/25 03:25:25;;;;;;;8.80;4.37;;;9.70;1.00;;;;;;5043721;28;20468;-79
2023/04/25 03:27:59;;;;;;;12.57;6.83;;;9.70;1.00;;;;;;5040240;28;20567;-78
2023/04/25 03:30:29;;;;;;;10.80;5.63;;;9.70;1.00;;;;;;5046486;28;20443;-78
2023/04/25 03:32:56;;;;;;;12.70;5.47;;;9.70;1.00;;;;;;5046642;28;20429;-79
2023/04/25 03:35:26;;;;;;;9.30;5.20;;;9.70;1.00;;;;;;5038298;28;21020;-79
2023/04/25 03:37:53;;;;;;;11.03;5.83;;;9.80;1.00;;;;;;5038695;28;20474;-78
2023/04/25 03:40:23;;;;;;;12.37;5.60;;;9.80;1.00;;;;;;5038903;28;20584;-79
2023/04/25 03:42:58;;;;;;;15.30;7.37;;;9.90;1.00;;;;;;5044341;28;20484;-78
2023/04/25 03:45:27;;;;;;;15.10;6.57;;;9.90;1.00;;;;;;5045006;28;20567;-78
2023/04/25 03:47:55;;;;;;;13.73;7.47;;;9.90;1.00;;;;;;5042997;28;20474;-79
2023/04/25 03:50:23;;;;;;;9.73;5.67;;;9.90;1.00;;;;;;5042055;28;20520;-78
2023/04/25 03:53:02;;;;;;;13.90;6.90;;;9.80;1.00;;;;;;5039317;28;20541;-78
2023/04/25 03:55:29;;;;;;;12.23;5.70;;;9.80;1.00;;;;;;5041397;28;20469;-79
2023/04/25 03:57:58;;;;;;;9.90;4.93;;;9.90;1.00;;;;;;5045152;28;20461;-80
2023/04/25 04:06:22;;;;;;;11.57;5.30;;;9.80;1.00;;;;;;5951619;22;20475;-81
2023/04/25 04:08:49;;;;;;;12.63;5.83;;;9.80;1.00;;;;;;5049822;28;20468;-81
2023/04/25 04:11:16;;;;;;;10.37;4.50;;;9.80;1.00;;;;;;5055290;28;20522;-81
2023/04/25 04:13:45;;;;;;;9.93;5.50;;;9.70;1.00;;;;;;5050649;28;20469;-80
2023/04/25 04:16:12;;;;;;;9.00;5.07;;;9.70;1.00;;;;;;5055863;28;20535;-81
2023/04/25 04:18:40;;;;;;;10.20;5.40;;;9.70;1.00;;;;;;5052578;28;20522;-79
2023/04/25 04:23:57;;;;;;;12.17;5.27;;;9.70;1.00;;;;;;5053348;28;20457;-79
2023/04/25 04:26:25;;;;;;;10.33;5.47;;;9.70;1.00;;;;;;5051581;28;21272;-79
2023/04/25 04:28:54;;;;;;;12.13;5.67;;;9.80;1.00;;;;;;5048033;28;21316;-81
2023/04/25 04:31:21;;;;;;;10.50;5.03;;;9.90;1.00;;;;;;5056037;28;20944;-79
2023/04/25 04:33:49;;;;;;;10.40;5.63;;;9.90;1.00;;;;;;5054067;28;21343;-81
2023/04/25 04:36:19;;;;;;;13.80;5.20;;;9.90;1.00;;;;;;5055059;28;20991;-80
2023/04/25 04:38:46;;;;;;;9.13;5.13;;;9.90;1.00;;;;;;5050777;28;20452;-79
2023/04/25 04:41:14;;;;;;;11.33;5.47;;;9.80;1.00;;;;;;5055437;28;20471;-80
2023/04/25 04:43:41;;;;;;;12.87;5.83;;;9.80;1.00;;;;;;5059382;28;20441;-79
2023/04/25 04:46:12;;;;;;;10.47;5.30;;;9.80;1.00;;;;;;5054968;28;20471;-79
2023/04/25 04:48:39;;;;;;;10.07;5.33;;;9.80;1.00;;;;;;5050554;28;20448;-79
2023/04/25 04:51:07;;;;;;;8.50;4.50;;;9.80;1.00;;;;;;5046951;28;21434;-79
2023/04/25 04:53:34;;;;;;;9.80;5.23;;;9.80;1.00;;;;;;5051233;28;20585;-80
2023/04/25 04:56:01;;;;;;;10.87;5.50;;;9.90;1.00;;;;;;5053279;28;20487;-79
2023/04/25 04:58:29;;;;;;;8.57;4.40;;;10.00;1.00;;;;;;5051180;28;20474;-79
2023/04/25 05:00:56;;;;;;;11.37;4.63;;;10.00;1.00;;;;;;5054271;28;20487;-80
2023/04/25 05:03:25;;;;;;;13.50;4.83;;;10.00;1.00;;;;;;5050828;28;20441;-79
2023/04/25 05:05:52;;;;;;;9.83;5.10;;;10.00;1.00;;;;;;5051204;28;21018;-79
2023/04/25 05:08:20;;;;;;;11.07;5.20;;;10.10;1.00;;;;;;5050538;28;20464;-80
2023/04/25 05:10:47;;;;;;;10.87;5.13;;;10.20;1.00;;;;;;5047572;28;21367;-79
2023/04/25 05:13:15;;;;;;;9.97;5.20;;;10.20;1.00;;;;;;5054656;28;20448;-81
2023/04/25 05:15:42;;;;;;;12.50;5.67;;;10.10;1.00;;;;;;5058429;28;20975;-80
2023/04/25 05:18:10;;;;;;;10.60;4.83;;;10.10;1.00;;;;;;5055472;28;20460;-80
2023/04/25 05:20:38;;;;;;;10.97;5.50;;;10.10;1.00;;;;;;5056906;28;20483;-80
2023/04/25 05:23:07;;;;;;;10.37;5.37;;;10.10;1.00;;;;;;5056172;28;20538;-81
2023/04/25 05:25:34;;;;;;;10.90;5.30;;;10.10;1.00;;;;;;5056080;28;20449;-81
2023/04/25 05:28:02;;;;;;;12.87;5.17;;;10.00;1.00;;;;;;5054387;28;20751;-80
2023/04/25 05:30:30;;;;;;;12.10;5.40;;;10.00;1.00;;;;;;5057289;28;20464;-80
2023/04/25 05:32:58;;;;;;;11.20;6.13;;;10.00;1.00;;;;;;5050290;28;20456;-80
2023/04/25 05:35:26;;;;;;;14.77;5.43;;;10.00;1.00;;;;;;5051629;28;20520;-81
2023/04/25 05:37:55;;;;;;;10.80;6.13;;;10.00;1.00;;;;;;5055813;28;20455;-80
2023/04/25 05:40:22;;;;;;;9.43;5.10;;;10.10;1.00;;;;;;5051739;28;20433;-82
2023/04/25 05:42:50;;;;;;;11.40;5.40;;;10.10;1.00;;;;;;5049731;28;20451;-82
2023/04/25 05:45:18;;;;;;;11.30;6.70;;;10.20;1.00;;;;;;5071166;28;20538;-83
2023/04/25 05:47:48;;;;;;;15.00;6.10;;;10.40;1.00;;;;;;5061941;28;20444;-83
2023/04/25 05:50:18;;;;;;;9.17;4.97;;;10.50;1.00;;;;;;5057762;28;20472;-83
2023/04/25 05:52:46;;;;;;;11.13;6.40;;;10.50;1.00;;;;;;5054655;28;20507;-83
2023/04/25 05:55:15;;;;;;;15.40;6.27;;;10.50;1.00;;;;;;5046203;28;20468;-83
2023/04/25 05:57:44;;;;;;;12.07;5.73;;;10.50;1.00;;;;;;5072102;28;20993;-82
2023/04/25 06:00:14;;;;;;;11.40;5.43;;;10.50;1.00;;;;;;5053812;28;20497;-83
2023/04/25 06:02:41;;;;;;;13.83;6.60;;;10.50;1.00;;;;;;5057711;28;20481;-82
2023/04/25 06:05:09;;;;;;;15.40;6.70;;;10.50;1.00;;;;;;5053394;28;21304;-83
2023/04/25 06:07:36;;;;;;;13.23;6.87;;;10.40;1.00;;;;;;5051891;28;20513;-82
2023/04/25 06:10:06;;;;;;;13.47;6.27;;;10.40;1.00;;;;;;5054552;28;20459;-82
2023/04/25 06:12:34;;;;;;;11.30;6.40;;;10.40;1.00;;;;;;5056379;28;20464;-82
2023/04/25 06:15:01;;;;;;;10.47;6.00;;;10.40;1.00;;;;;;5058994;28;20471;-82
2023/04/25 06:17:28;;;;;;;13.40;6.10;;;10.40;1.00;;;;;;5055399;28;20453;-83
2023/04/25 06:19:55;;;;;;;12.67;6.87;;;10.40;1.00;;;;;;5059225;28;20508;-82
2023/04/25 06:22:22;;;;;;;12.60;6.33;;;10.40;1.00;;;;;;5057368;28;20432;-83
2023/04/25 06:24:50;;;;;;;13.43;6.20;;;10.30;1.00;;;;;;5056192;28;20511;-82
2023/04/25 06:27:17;;;;;;;14.07;6.93;;;10.30;1.00;;;;;;5055839;28;20512;-82
2023/04/25 06:29:48;;;;;;;10.87;5.73;;;10.30;1.00;;;;;;5056594;28;20565;-83
2023/04/25 06:32:15;;;;;;;12.07;6.60;;;10.40;1.00;;;;;;5057237;28;20464;-82
2023/04/25 06:34:42;;;;;;;11.33;5.07;;;10.40;1.00;;;;;;5057351;28;20499;-82
2023/04/25 06:37:09;;;;;;;11.07;6.70;;;10.50;1.00;;;;;;5053865;28;20437;-82
2023/04/25 06:39:36;;;;;;;14.90;6.20;;;10.60;1.00;;;;;;5058315;28;20466;-82
2023/04/25 06:42:06;;;;;;;13.93;5.83;;;10.70;1.00;;;;;;5059746;28;20566;-82
2023/04/25 06:44:33;;;;;;;11.80;6.40;;;10.70;1.00;;;;;;5055474;28;20464;-82
2023/04/25 06:47:02;;;;;;;10.83;5.93;;;10.60;1.00;;;;;;5056342;28;20538;-83
2023/04/25 06:49:32;;;;;;;14.60;6.20;;;10.60;1.00;;;;;;5054888;28;20461;-83
2023/04/25 06:51:59;;;;;;;14.10;6.40;;;10.80;1.00;;;;;;5054969;28;20462;-81
2023/04/25 06:54:29;;;;;;;14.33;6.53;;;10.70;1.00;;;;;;5049232;28;20554;-82
2023/04/25 06:56:56;;;;;;;10.43;5.70;;;10.80;1.00;;;;;;5054760;28;20452;-82
2023/04/25 06:59:24;;;;;;;13.03;5.87;;;10.80;1.00;;;;;;5061796;28;20530;-83
2023/04/25 07:01:51;;;;;;;19.70;6.87;;;10.80;1.00;;;;;;5048840;28;21352;-83
2023/04/25 07:04:19;;;;;;;10.87;6.00;;;10.80;1.00;;;;;;5057802;28;20489;-83
2023/04/25 07:06:48;;;;;;;10.83;5.43;;;10.70;1.00;;;;;;5058829;28;20465;-84
2023/04/25 07:09:15;;;;;;;13.27;6.60;;;10.70;1.00;;;;;;5055739;28;20462;-82
2023/04/25 07:11:42;;;;;;;11.40;5.60;;;10.50;1.00;;;;;;5055523;28;20539;-82
2023/04/25 07:14:09;;;;;;;12.20;6.57;;;10.50;1.00;;;;;;5055932;28;20442;-83
2023/04/25 07:16:36;;;;;;;9.87;4.53;;;10.60;1.00;;;;;;5055135;28;20465;-83
2023/04/25 07:19:06;;;;;;;11.40;5.40;;;10.60;1.00;;;;;;5054365;28;20562;-82
2023/04/25 07:21:36;;;;;;;10.40;5.93;;;10.50;1.00;;;;;;5055810;28;20837;-84
2023/04/25 07:24:03;;;;;;;10.67;4.60;;;10.50;1.00;;;;;;5049870;28;20472;-81
2023/04/25 07:26:30;;;;;;;10.23;5.00;;;10.50;1.00;;;;;;5057104;28;21185;-81
2023/04/25 07:28:57;;;;;;;12.10;5.50;;;10.40;1.00;;;;;;5055062;28;21344;-82
2023/04/25 07:31:24;;;;;;;9.87;5.37;;;10.30;1.00;;;;;;5053307;28;21258;-82
2023/04/25 07:33:54;;;;;;;9.43;4.83;;;10.20;1.00;;;;;;5054078;28;20512;-83
2023/04/25 07:36:24;;;;;;;9.33;5.13;;;10.10;1.00;;;;;;5057925;28;20425;-83
2023/04/25 07:38:52;;;;;;;10.03;5.47;;;10.10;1.00;;;;;;5053888;28;20544;-83
2023/04/25 07:41:19;;;;;;;15.43;6.03;;;10.00;1.00;;;;;;5050288;28;20448;-82
2023/04/25 07:43:46;;;;;;;12.13;5.43;;;9.90;1.00;;;;;;5056625;28;22044;-83
2023/04/25 07:46:14;;;;;;;13.17;5.47;;;10.00;1.00;;;;;;5055329;28;20455;-83
2023/04/25 07:48:41;;;;;;;11.27;5.70;;;10.10;1.00;;;;;;5060038;28;20460;-82
2023/04/25 07:51:08;;;;;;;13.30;5.70;;;10.20;1.00;;;;;;5057875;28;20456;-83
2023/04/25 07:53:37;;;;;;;11.40;5.30;;;10.30;1.00;;;;;;5055663;28;20451;-82
2023/04/25 07:56:06;;;;;;;12.93;5.47;;;10.50;1.00;;;;;;5055946;28;20483;-83
2023/04/25 07:58:33;;;;;;;15.07;5.07;;;10.70;1.00;;;;;;5058172;28;20460;-81
2023/04/25 08:01:00;;;;;;;14.90;5.40;;;10.80;1.00;;;;;;5058076;28;20452;-83
2023/04/25 08:03:27;;;;;;;12.60;5.50;;;11.00;1.00;;;;;;5057520;28;20461;-82
2023/04/25 08:05:55;;;;;;;12.77;5.43;;;11.10;1.00;;;;;;5050221;28;20464;-83
2023/04/25 08:08:23;;;;;;;11.93;5.07;;;11.10;1.00;;;;;;5057297;28;20445;-82
2023/04/25 08:10:50;;;;;;;15.43;6.40;;;10.90;1.00;;;;;;5057362;28;20465;-82
2023/04/25 08:13:19;;;;;;;16.10;5.67;;;10.80;1.00;;;;;;5055401;28;21158;-83
2023/04/25 08:15:46;;;;;;;13.50;4.93;;;10.80;1.00;;;;;;5058713;28;20449;-82
2023/04/25 08:18:15;;;;;;;14.10;5.70;;;10.80;1.00;;;;;;5058199;28;20461;-83
2023/04/25 08:20:43;;;;;;;13.13;6.23;;;11.10;1.00;;;;;;5060440;28;20461;-82
2023/04/25 08:23:10;;;;;;;14.70;5.40;;;11.50;1.00;;;;;;5054095;28;20438;-82
2023/04/25 08:25:39;;;;;;;19.93;5.07;;;12.00;1.00;;;;;;5058596;28;20454;-82
2023/04/25 08:28:06;;;;;;;17.70;5.73;;;12.20;1.00;;;;;;5062065;28;20466;-82
2023/04/25 08:30:35;;;;;;;11.87;4.70;;;12.40;1.00;;;;;;5059520;28;20557;-81
2023/04/25 08:33:02;;;;;;;14.20;5.20;;;12.20;1.00;;;;;;5060288;28;20466;-82
2023/04/25 08:35:29;;;;;;;13.43;6.70;;;12.00;1.00;;;;;;5058577;28;21166;-81
2023/04/25 08:37:58;;;;;;;10.90;5.10;;;12.00;1.00;;;;;;5055096;28;20471;-82
2023/04/25 08:40:29;;;;;;;12.67;5.20;;;12.20;1.00;;;;;;5057853;28;20495;-82
2023/04/25 08:42:58;;;;;;;14.67;5.63;;;12.30;1.00;;;;;;5059637;28;20549;-83
2023/04/25 08:45:28;;;;;;;12.80;5.20;;;12.40;1.00;;;;;;5057448;28;20465;-83
2023/04/25 08:48:03;;;;;;;10.77;5.23;;;12.40;1.00;;;;;;5056959;28;20487;-82
2023/04/25 08:50:31;;;;;;;14.23;5.13;;;12.50;1.00;;;;;;5056929;28;20445;-83
2023/04/25 09:03:05;;;;;;;14.30;5.67;;;11.70;1.00;;;;;;5054584;28;20421;-83
2023/04/25 09:05:33;;;;;;;13.73;4.57;;;11.90;1.00;;;;;;5056747;28;20477;-83
2023/04/25 09:08:01;;;;;;;11.40;4.30;;;12.20;1.00;;;;;;5060766;28;20453;-82
2023/04/25 09:10:31;;;;;;;13.03;4.83;;;12.30;1.00;;;;;;5060873;28;20442;-82
2023/04/25 09:13:08;;;;;;;11.97;4.60;;;12.40;1.00;;;;;;5059690;28;20462;-83
2023/04/25 09:15:51;;;;;;;12.50;4.03;;;12.60;1.00;;;;;;5059897;28;21011;-84
2023/04/25 09:18:27;;;;;;;11.07;3.50;;;12.90;1.00;;;;;;5058512;28;20553;-83
2023/04/25 09:20:55;;;;;;;9.90;4.30;;;12.60;1.00;;;;;;5061827;28;20454;-82
2023/04/25 09:23:24;;;;;;;12.37;4.23;;;12.50;1.00;;;;;;5057901;28;20438;-86
2023/04/25 09:25:53;;;;;;;13.40;4.57;;;12.80;1.00;;;;;;5055964;28;20541;-82
2023/04/25 09:28:27;;;;;;;13.03;4.50;;;13.30;1.00;;;;;;5054354;28;20442;-82
2023/04/25 09:30:58;;;;;;;12.57;4.03;;;13.60;1.00;;;;;;5059170;28;20939;-83
2023/04/25 09:33:31;;;;;;;9.43;3.53;;;14.40;1.00;;;;;;5049932;28;20502;-83
2023/04/25 09:36:04;;;;;;;12.63;5.30;;;14.70;1.00;;;;;;5068248;28;20479;-83
2023/04/25 09:38:33;;;;;;;10.20;4.23;;;14.90;1.00;;;;;;5061702;28;20505;-83
2023/04/25 09:41:01;;;;;;;11.30;4.30;;;15.30;1.00;;;;;;5056534;28;20467;-83
2023/04/25 09:43:29;;;;;;;8.30;3.40;;;15.00;1.00;;;;;;5058476;28;20502;-84
2023/04/25 09:48:39;;;;;;;11.50;4.00;;;14.80;1.00;;;;;;5053165;28;20433;-82
2023/04/25 09:51:08;;;;;;;12.80;4.27;;;15.70;1.00;;;;;;5058328;28;20821;-81
2023/04/25 09:53:36;;;;;;;14.30;4.30;;;16.20;1.00;;;;;;5058869;28;20406;-83
2023/04/25 09:56:09;;;;;;;8.37;3.37;;;16.00;1.00;;;;;;5058234;28;20469;-83
2023/04/25 09:58:37;;;;;;;9.40;3.63;;;15.60;1.00;;;;;;5055424;28;20526;-84
2023/04/25 10:01:06;;;;;;;10.83;3.83;;;14.80;1.00;;;;;;5055499;28;20464;-84
2023/04/25 10:03:35;;;;;;;8.50;3.20;;;14.40;1.00;;;;;;5056206;28;20461;-82
2023/04/25 10:06:09;;;;;;;8.53;3.40;;;14.20;1.00;;;;;;5058199;28;20468;-82
2023/04/25 10:08:38;;;;;;;9.17;3.60;;;14.10;1.00;;;;;;5060384;28;20482;-83
2023/04/25 10:11:08;;;;;;;9.20;3.40;;;14.30;1.00;;;;;;5057468;28;20486;-82
2023/04/25 10:13:41;;;;;;;8.10;2.87;;;13.70;1.00;;;;;;5054593;28;20479;-82
2023/04/25 10:16:09;;;;;;;8.10;3.40;;;13.50;1.00;;;;;;5056134;28;20458;-82
2023/04/25 10:18:37;;;;;;;10.50;3.97;;;13.80;1.00;;;;;;5056730;28;20514;-83
2023/04/25 10:21:07;;;;;;;9.23;3.20;;;14.60;1.00;;;;;;5057181;28;20475;-85
2023/04/25 10:23:35;;;;;;;9.93;2.80;;;14.70;1.00;;;;;;5054947;28;20491;-83
2023/04/25 10:26:03;;;;;;;11.43;3.63;;;14.40;1.00;;;;;;5056010;28;20478;-82
2023/04/25 10:28:47;;;;;;;10.10;3.90;;;14.10;1.00;;;;;;5059041;28;20533;-82
2023/04/25 10:31:18;;;;;;;7.67;3.30;;;14.10;1.00;;;;;;5056637;28;20549;-81
2023/04/25 10:33:45;;;;;;;8.67;3.30;;;13.90;1.00;;;;;;5055670;28;20493;-83
2023/04/25 10:36:15;;;;;;;9.37;2.77;;;13.90;1.00;;;;;;5056823;28;20468;-83
2023/04/25 10:38:44;;;;;;;8.83;3.10;;;13.60;1.00;;;;;;5057860;28;20459;-82
2023/04/25 10:41:12;;;;;;;7.80;3.20;;;13.60;1.00;;;;;;5055719;28;20463;-82
2023/04/25 10:43:41;;;;;;;8.90;3.63;;;13.80;1.00;;;;;;5058540;28;20578;-82
2023/04/25 10:46:19;;;;;;;9.20;2.87;;;14.10;1.00;;;;;;5054930;28;20472;-83
2023/04/25 10:48:49;;;;;;;10.23;3.43;;;14.30;1.00;;;;;;5058543;28;20899;-82
2023/04/25 10:51:23;;;;;;;7.83;3.23;;;14.00;1.00;;;;;;5053160;28;20467;-83
2023/04/25 10:54:01;;;;;;;10.30;3.23;;;13.60;1.00;;;;;;5060489;28;20521;-82
2023/04/25 10:56:30;;;;;;;10.73;4.07;;;13.30;1.00;;;;;;5056476;28;20560;-83
2023/04/25 10:59:09;;;;;;;9.70;3.33;;;13.10;1.00;;;;;;5057618;28;21297;-83
2023/04/25 11:01:41;;;;;;;11.03;3.70;;;13.00;1.00;;;;;;5053355;28;20441;-83
2023/04/25 11:04:21;;;;;;;15.03;3.60;;;13.00;1.00;;;;;;5054955;28;20471;-83
2023/04/25 11:07:09;;;;;;;14.60;3.93;;;13.00;1.00;;;;;;5059267;28;20509;-82
2023/04/25 11:09:39;;;;;;;8.30;3.03;;;13.10;1.00;;;;;;5055345;28;20442;-82
2023/04/25 11:12:08;;;;;;;9.93;3.40;;;13.00;1.00;;;;;;5055402;28;20462;-82
2023/04/25 11:14:36;;;;;;;8.40;3.40;;;13.30;1.00;;;;;;5052109;28;20525;-82
2023/04/25 11:17:03;;;;;;;9.83;3.93;;;13.90;1.00;;;;;;5054477;28;20483;-84
2023/04/25 11:19:30;;;;;;;9.53;3.13;;;14.30;1.00;;;;;;5054626;28;20506;-83
2023/04/25 11:22:00;;;;;;;8.67;3.27;;;14.50;1.00;;;;;;5055553;28;21386;-82
2023/04/25 11:24:31;;;;;;;11.63;3.60;;;14.60;1.00;;;;;;5056231;28;20457;-82
2023/04/25 11:27:03;;;;;;;10.13;2.73;;;14.30;1.00;;;;;;5054880;28;20512;-83
2023/04/25 11:29:34;;;;;;;9.80;3.50;;;13.80;1.00;;;;;;5054682;28;20457;-83
2023/04/25 11:32:04;;;;;;;7.67;2.97;;;13.10;1.00;;;;;;5058342;28;20546;-82
2023/04/25 11:34:34;;;;;;;9.30;3.00;;;12.60;1.00;;;;;;5057301;28;20465;-82
2023/04/25 11:37:06;;;;;;;6.40;2.57;;;12.20;1.00;;;;;;5055430;28;20539;-82
2023/04/25 11:39:34;;;;;;;11.40;3.50;;;11.80;1.00;;;;;;5057154;28;21257;-82
2023/04/25 11:42:05;;;;;;;10.63;3.47;;;11.70;1.00;;;;;;5055296;28;20432;-81
2023/04/25 11:44:32;;;;;;;9.37;3.20;;;11.70;1.00;;;;;;5056434;28;21458;-82
2023/04/25 11:46:59;;;;;;;8.97;3.03;;;11.70;1.00;;;;;;5052511;28;20580;-83
2023/04/25 11:49:31;;;;;;;7.40;3.37;;;11.80;1.00;;;;;;5059976;28;20560;-81
2023/04/25 11:51:59;;;;;;;7.80;2.80;;;11.80;1.00;;;;;;5056409;28;20460;-82
2023/04/25 11:54:27;;;;;;;7.83;3.00;;;12.00;1.00;;;;;;5058447;28;20453;-82
2023/04/25 11:56:56;;;;;;;8.73;2.73;;;12.10;1.00;;;;;;5059128;28;20540;-82
2023/04/25 11:59:26;;;;;;;10.03;3.10;;;12.20;1.00;;;;;;5058817;28;21081;-83
2023/04/25 12:01:53;;;;;;;8.90;3.10;;;12.40;1.00;;;;;;5059050;28;20561;-83
2023/04/25 12:04:22;;;;;;;9.77;3.40;;;12.70;1.00;;;;;;5058819;28;20488;-83
2023/04/25 12:06:53;;;;;;;6.83;2.70;;;12.90;1.00;;;;;;5057163;28;20473;-83
2023/04/25 12:09:22;;;;;;;10.07;3.17;;;13.00;1.00;;;;;;5052545;28;20481;-84
2023/04/25 12:11:56;;;;;;;5.33;2.40;;;12.80;1.00;;;;;;5058354;28;20443;-82
2023/04/25 12:14:24;;;;;;;8.00;2.57;;;12.70;1.00;;;;;;5055637;28;20454;-82
2023/04/25 12:16:55;;;;;;;7.57;3.10;;;12.70;1.00;;;;;;5059625;28;20509;-82
2023/04/25 12:19:24;;;;;;;9.43;2.70;;;12.80;1.00;;;;;;5058054;28;20450;-83
2023/04/25 12:21:52;;;;;;;6.50;2.67;;;12.80;1.00;;;;;;5054388;28;21212;-82
2023/04/25 12:24:25;;;;;;;9.33;4.10;;;12.90;1.00;;;;;;5064396;28;20550;-83
2023/04/25 12:26:55;;;;;;;7.50;3.43;;;12.80;1.00;;;;;;5057778;28;20478;-82
2023/04/25 12:29:24;;;;;;;8.67;3.20;;;12.90;1.00;;;;;;5060106;28;20444;-83
2023/04/25 12:31:55;;;;;;;10.20;2.80;;;13.00;1.00;;;;;;5064521;28;20481;-83
2023/04/25 12:34:23;;;;;;;10.43;3.60;;;13.20;1.00;;;;;;5057109;28;20459;-83
2023/04/25 12:36:52;;;;;;;10.03;3.13;;;13.30;1.00;;;;;;5058228;28;20467;-83
2023/04/25 12:39:21;;;;;;;9.80;3.13;;;13.60;1.00;;;;;;5059338;28;20434;-82
2023/04/25 12:41:48;;;;;;;10.50;3.10;;;14.00;1.00;;;;;;5061792;28;20477;-83
2023/04/25 12:44:18;;;;;;;7.60;2.77;;;14.40;1.00;;;;;;5057212;28;20534;-82
2023/04/25 12:46:45;;;;;;;9.03;2.93;;;14.60;1.00;;;;;;5057747;28;20479;-83
2023/04/25 12:49:12;;;;;;;10.37;3.03;;;15.30;1.00;;;;;;5059719;28;20521;-82
2023/04/25 12:51:41;;;;;;;8.93;2.90;;;15.70;1.00;;;;;;5062400;28;20431;-82
2023/04/25 12:54:09;;;;;;;8.03;2.67;;;15.70;1.00;;;;;;5054856;28;21258;-84
2023/04/25 12:56:36;;;;;;;10.53;2.60;;;15.60;1.00;;;;;;5057652;28;21282;-83
2023/04/25 12:59:04;;;;;;;8.47;3.00;;;15.10;1.00;;;;;;5059544;28;20487;-82
2023/04/25 13:01:33;;;;;;;8.77;3.17;;;14.40;1.00;;;;;;5056519;28;20475;-83
2023/04/25 13:04:00;;;;;;;8.53;3.23;;;14.00;1.00;;;;;;5060917;28;20466;-83
2023/04/25 13:06:30;;;;;;;8.80;3.10;;;13.50;1.00;;;;;;5056105;28;20478;-82
2023/04/25 13:08:58;;;;;;;7.50;2.53;;;13.50;1.00;;;;;;5058161;28;20477;-82
2023/04/25 13:11:25;;;;;;;6.07;2.77;;;13.30;1.00;;;;;;5057842;28;20502;-82
2023/04/25 13:13:53;;;;;;;7.27;3.00;;;13.40;1.00;;;;;;5059927;28;20467;-82
2023/04/25 13:16:22;;;;;;;8.97;3.03;;;13.70;1.00;;;;;;5062230;28;20497;-81
2023/04/25 13:18:50;;;;;;;6.60;3.03;;;14.00;1.00;;;;;;5057303;28;20459;-83
2023/04/25 13:21:19;;;;;;;11.03;2.77;;;14.20;1.00;;;;;;5059140;28;20981;-83
2023/04/25 13:23:47;;;;;;;6.80;1.90;;;14.60;1.00;;;;;;5056861;28;20428;-83
2023/04/25 13:26:15;;;;;;;9.70;3.50;;;15.60;1.00;;;;;;5056002;28;20468;-81
2023/04/25 13:28:43;;;;;;;7.37;2.80;;;16.60;1.00;;;;;;5059746;28;20534;-83
2023/04/25 13:31:14;;;;;;;7.90;2.87;;;17.80;1.00;;;;;;5056458;28;20975;-84
2023/04/25 13:33:42;;;;;;;8.20;2.13;;;19.00;1.00;;;;;;5061615;28;21278;-83
2023/04/25 13:36:10;;;;;;;6.73;2.10;;;20.00;1.00;;;;;;5057846;28;20511;-83
2023/04/25 13:38:38;;;;;;;7.43;2.00;;;19.50;1.00;;;;;;5058296;28;20550;-82
2023/04/25 13:41:07;;;;;;;5.93;2.13;;;18.10;1.00;;;;;;5056975;28;20432;-82
2023/04/25 13:43:34;;;;;;;8.23;2.83;;;17.00;1.00;;;;;;5063501;28;20420;-82